Buxton, United Kingdom
Current Conditions -  °F | °C
As of 8:50 PM on Friday 19 Dec 2014 (Local Time) from EGCC Reporting Station
Moderate Rain Moderate Rain  
Wind Chill: 35°   Ceiling: 2100
Heat Index: 43°   Visibility: 6mi
Dew Point: 39°   Wind: 15mph
Humidity: 87%   Direction: 260°W
Pressure: 30.09"   Gusts: NA
Location:  53.26°N, 1.91°W
Report Text: EGCC 192050Z 26013KT 9000 RA FEW010TCU BKN021 BKN027 06/04 Q1019 TEMPO NSW
Loading
Personal Weather Stations






























Interactive Weather Map New forecast layout! Learn more

10-Day Weather Forecast

Advertisements
Track Severe Weather on mobile